sensor_id;sensor_type;location;lat;lon;timestamp;P1;durP1;ratioP1;P2;durP2;ratioP2
2724;SDS011;1370;52.596;13.112;2023-06-26T00:01:40;11.67;;;9.70;;
2724;SDS011;1370;52.596;13.112;2023-06-26T00:04:07;11.50;;;9.23;;
2724;SDS011;1370;52.596;13.112;2023-06-26T00:06:32;12.23;;;10.57;;
2724;SDS011;1370;52.596;13.112;2023-06-26T00:08:58;10.57;;;9.63;;
2724;SDS011;1370;52.596;13.112;2023-06-26T00:11:24;9.73;;;8.83;;
2724;SDS011;1370;52.596;13.112;2023-06-26T00:13:49;10.13;;;9.23;;
2724;SDS011;1370;52.596;13.112;2023-06-26T00:16:15;8.87;;;8.17;;
2724;SDS011;1370;52.596;13.112;2023-06-26T00:18:40;10.47;;;9.23;;
2724;SDS011;1370;52.596;13.112;2023-06-26T00:21:05;10.73;;;9.57;;
2724;SDS011;1370;52.596;13.112;2023-06-26T00:23:30;11.00;;;10.00;;
2724;SDS011;1370;52.596;13.112;2023-06-26T00:25:57;12.80;;;9.93;;
2724;SDS011;1370;52.596;13.112;2023-06-26T00:28:23;19.07;;;10.77;;
2724;SDS011;1370;52.596;13.112;2023-06-26T00:30:48;10.10;;;9.20;;
2724;SDS011;1370;52.596;13.112;2023-06-26T00:33:13;9.93;;;9.07;;
2724;SDS011;1370;52.596;13.112;2023-06-26T00:35:39;9.47;;;8.67;;
2724;SDS011;1370;52.596;13.112;2023-06-26T00:38:04;10.57;;;9.57;;
2724;SDS011;1370;52.596;13.112;2023-06-26T00:40:29;10.17;;;9.10;;
2724;SDS011;1370;52.596;13.112;2023-06-26T00:42:55;10.23;;;9.33;;
2724;SDS011;1370;52.596;13.112;2023-06-26T00:45:20;10.03;;;9.23;;
2724;SDS011;1370;52.596;13.112;2023-06-26T00:47:45;10.50;;;9.53;;
2724;SDS011;1370;52.596;13.112;2023-06-26T00:50:11;10.33;;;9.10;;
2724;SDS011;1370;52.596;13.112;2023-06-26T00:52:37;9.87;;;8.70;;
2724;SDS011;1370;52.596;13.112;2023-06-26T00:55:02;9.30;;;8.50;;
2724;SDS011;1370;52.596;13.112;2023-06-26T00:57:29;10.83;;;9.73;;
2724;SDS011;1370;52.596;13.112;2023-06-26T00:59:55;12.60;;;8.47;;
2724;SDS011;1370;52.596;13.112;2023-06-26T01:02:20;10.80;;;9.30;;
2724;SDS011;1370;52.596;13.112;2023-06-26T01:04:48;13.53;;;9.67;;
2724;SDS011;1370;52.596;13.112;2023-06-26T01:07:14;9.97;;;8.93;;
2724;SDS011;1370;52.596;13.112;2023-06-26T01:09:40;10.37;;;9.57;;
2724;SDS011;1370;52.596;13.112;2023-06-26T01:12:06;10.63;;;9.30;;
2724;SDS011;1370;52.596;13.112;2023-06-26T01:14:31;11.47;;;9.60;;
2724;SDS011;1370;52.596;13.112;2023-06-26T01:16:59;10.80;;;9.90;;
2724;SDS011;1370;52.596;13.112;2023-06-26T01:19:26;11.27;;;10.27;;
2724;SDS011;1370;52.596;13.112;2023-06-26T01:22:13;15.87;;;11.33;;
2724;SDS011;1370;52.596;13.112;2023-06-26T01:25:23;12.07;;;11.07;;
2724;SDS011;1370;52.596;13.112;2023-06-26T01:28:12;11.33;;;10.13;;
2724;SDS011;1370;52.596;13.112;2023-06-26T01:30:41;11.40;;;10.37;;
2724;SDS011;1370;52.596;13.112;2023-06-26T01:33:07;13.63;;;12.30;;
2724;SDS011;1370;52.596;13.112;2023-06-26T01:35:32;12.53;;;11.37;;
2724;SDS011;1370;52.596;13.112;2023-06-26T01:38:14;12.80;;;11.20;;
2724;SDS011;1370;52.596;13.112;2023-06-26T01:40:40;11.97;;;10.87;;
2724;SDS011;1370;52.596;13.112;2023-06-26T01:43:06;13.87;;;11.40;;
2724;SDS011;1370;52.596;13.112;2023-06-26T01:45:35;10.83;;;9.80;;
2724;SDS011;1370;52.596;13.112;2023-06-26T01:48:01;11.80;;;10.67;;
2724;SDS011;1370;52.596;13.112;2023-06-26T01:50:28;14.27;;;11.50;;
2724;SDS011;1370;52.596;13.112;2023-06-26T01:53:10;9.50;;;8.80;;
2724;SDS011;1370;52.596;13.112;2023-06-26T01:55:43;9.77;;;8.77;;
2724;SDS011;1370;52.596;13.112;2023-06-26T01:58:11;9.13;;;8.30;;
2724;SDS011;1370;52.596;13.112;2023-06-26T02:00:38;10.87;;;9.77;;
2724;SDS011;1370;52.596;13.112;2023-06-26T02:03:03;13.70;;;11.10;;
2724;SDS011;1370;52.596;13.112;2023-06-26T02:05:31;10.97;;;9.80;;
2724;SDS011;1370;52.596;13.112;2023-06-26T02:07:56;11.17;;;10.07;;
2724;SDS011;1370;52.596;13.112;2023-06-26T02:10:21;13.83;;;9.40;;
2724;SDS011;1370;52.596;13.112;2023-06-26T02:12:47;12.40;;;11.30;;
2724;SDS011;1370;52.596;13.112;2023-06-26T02:15:12;8.93;;;8.30;;
2724;SDS011;1370;52.596;13.112;2023-06-26T02:17:37;8.00;;;7.47;;
2724;SDS011;1370;52.596;13.112;2023-06-26T02:20:03;9.43;;;8.63;;
2724;SDS011;1370;52.596;13.112;2023-06-26T02:22:28;10.20;;;9.47;;
2724;SDS011;1370;52.596;13.112;2023-06-26T02:24:53;11.33;;;9.90;;
2724;SDS011;1370;52.596;13.112;2023-06-26T02:27:19;9.00;;;8.37;;
2724;SDS011;1370;52.596;13.112;2023-06-26T02:29:44;10.13;;;9.27;;
2724;SDS011;1370;52.596;13.112;2023-06-26T02:32:09;9.23;;;8.50;;
2724;SDS011;1370;52.596;13.112;2023-06-26T02:34:35;10.30;;;9.53;;
2724;SDS011;1370;52.596;13.112;2023-06-26T02:37:00;11.30;;;10.30;;
2724;SDS011;1370;52.596;13.112;2023-06-26T02:39:26;12.00;;;9.67;;
2724;SDS011;1370;52.596;13.112;2023-06-26T02:41:51;11.17;;;8.80;;
2724;SDS011;1370;52.596;13.112;2023-06-26T02:44:17;10.20;;;9.40;;
2724;SDS011;1370;52.596;13.112;2023-06-26T02:46:42;8.93;;;8.20;;
2724;SDS011;1370;52.596;13.112;2023-06-26T02:49:07;13.53;;;9.93;;
2724;SDS011;1370;52.596;13.112;2023-06-26T02:51:33;10.30;;;9.40;;
2724;SDS011;1370;52.596;13.112;2023-06-26T02:53:58;10.70;;;9.70;;
2724;SDS011;1370;52.596;13.112;2023-06-26T02:56:24;11.20;;;10.10;;
2724;SDS011;1370;52.596;13.112;2023-06-26T02:58:53;9.77;;;9.00;;
2724;SDS011;1370;52.596;13.112;2023-06-26T03:01:18;11.33;;;10.37;;
2724;SDS011;1370;52.596;13.112;2023-06-26T03:03:45;10.77;;;9.77;;
2724;SDS011;1370;52.596;13.112;2023-06-26T03:06:12;10.03;;;9.13;;
2724;SDS011;1370;52.596;13.112;2023-06-26T03:08:37;11.23;;;10.03;;
2724;SDS011;1370;52.596;13.112;2023-06-26T03:11:09;9.50;;;8.70;;
2724;SDS011;1370;52.596;13.112;2023-06-26T03:13:34;11.60;;;10.47;;
2724;SDS011;1370;52.596;13.112;2023-06-26T03:16:00;14.43;;;10.63;;
2724;SDS011;1370;52.596;13.112;2023-06-26T03:18:26;12.30;;;11.17;;
2724;SDS011;1370;52.596;13.112;2023-06-26T03:20:51;16.33;;;11.63;;
2724;SDS011;1370;52.596;13.112;2023-06-26T03:23:19;11.20;;;10.10;;
2724;SDS011;1370;52.596;13.112;2023-06-26T03:25:44;13.57;;;10.77;;
2724;SDS011;1370;52.596;13.112;2023-06-26T03:28:10;16.90;;;9.27;;
2724;SDS011;1370;52.596;13.112;2023-06-26T03:30:35;13.50;;;9.03;;
2724;SDS011;1370;52.596;13.112;2023-06-26T03:33:00;10.40;;;9.37;;
2724;SDS011;1370;52.596;13.112;2023-06-26T03:35:25;10.50;;;9.60;;
2724;SDS011;1370;52.596;13.112;2023-06-26T03:37:54;11.40;;;9.80;;
2724;SDS011;1370;52.596;13.112;2023-06-26T03:40:19;11.07;;;10.07;;
2724;SDS011;1370;52.596;13.112;2023-06-26T03:42:44;9.73;;;9.03;;
2724;SDS011;1370;52.596;13.112;2023-06-26T03:45:10;11.87;;;10.67;;
2724;SDS011;1370;52.596;13.112;2023-06-26T03:47:35;11.10;;;10.30;;
2724;SDS011;1370;52.596;13.112;2023-06-26T03:50:00;12.27;;;9.80;;
2724;SDS011;1370;52.596;13.112;2023-06-26T03:52:25;9.37;;;8.67;;
2724;SDS011;1370;52.596;13.112;2023-06-26T03:54:53;10.77;;;9.03;;
2724;SDS011;1370;52.596;13.112;2023-06-26T03:57:18;12.10;;;10.80;;
2724;SDS011;1370;52.596;13.112;2023-06-26T03:59:44;10.13;;;9.33;;
2724;SDS011;1370;52.596;13.112;2023-06-26T04:02:09;10.43;;;9.63;;
2724;SDS011;1370;52.596;13.112;2023-06-26T04:04:37;9.07;;;8.30;;
2724;SDS011;1370;52.596;13.112;2023-06-26T04:07:02;9.57;;;8.80;;
2724;SDS011;1370;52.596;13.112;2023-06-26T04:09:27;9.33;;;8.53;;
2724;SDS011;1370;52.596;13.112;2023-06-26T04:11:53;11.87;;;11.00;;
2724;SDS011;1370;52.596;13.112;2023-06-26T04:14:18;12.20;;;11.10;;
2724;SDS011;1370;52.596;13.112;2023-06-26T04:16:44;11.70;;;10.60;;
2724;SDS011;1370;52.596;13.112;2023-06-26T04:19:10;11.43;;;10.40;;
2724;SDS011;1370;52.596;13.112;2023-06-26T04:21:35;10.47;;;9.53;;
2724;SDS011;1370;52.596;13.112;2023-06-26T04:24:01;11.30;;;10.20;;
2724;SDS011;1370;52.596;13.112;2023-06-26T04:26:26;12.07;;;10.90;;
2724;SDS011;1370;52.596;13.112;2023-06-26T04:28:52;10.20;;;9.50;;
2724;SDS011;1370;52.596;13.112;2023-06-26T04:31:18;10.30;;;9.40;;
2724;SDS011;1370;52.596;13.112;2023-06-26T04:33:43;12.10;;;11.00;;
2724;SDS011;1370;52.596;13.112;2023-06-26T04:36:09;12.77;;;11.67;;
2724;SDS011;1370;52.596;13.112;2023-06-26T04:38:34;13.70;;;11.47;;
2724;SDS011;1370;52.596;13.112;2023-06-26T04:41:00;12.13;;;11.07;;
2724;SDS011;1370;52.596;13.112;2023-06-26T04:43:26;12.03;;;11.07;;
2724;SDS011;1370;52.596;13.112;2023-06-26T04:45:51;13.83;;;12.43;;
2724;SDS011;1370;52.596;13.112;2023-06-26T04:48:16;15.90;;;10.50;;
2724;SDS011;1370;52.596;13.112;2023-06-26T04:50:42;16.80;;;12.20;;
2724;SDS011;1370;52.596;13.112;2023-06-26T04:53:07;14.13;;;10.93;;
2724;SDS011;1370;52.596;13.112;2023-06-26T04:55:32;19.40;;;11.50;;
2724;SDS011;1370;52.596;13.112;2023-06-26T04:57:57;15.47;;;12.70;;
2724;SDS011;1370;52.596;13.112;2023-06-26T05:00:23;11.57;;;10.50;;
2724;SDS011;1370;52.596;13.112;2023-06-26T05:02:49;15.37;;;12.87;;
2724;SDS011;1370;52.596;13.112;2023-06-26T05:05:23;14.43;;;13.07;;
2724;SDS011;1370;52.596;13.112;2023-06-26T05:07:49;12.87;;;11.57;;
2724;SDS011;1370;52.596;13.112;2023-06-26T05:10:14;12.53;;;11.33;;
2724;SDS011;1370;52.596;13.112;2023-06-26T05:12:39;15.57;;;14.07;;
2724;SDS011;1370;52.596;13.112;2023-06-26T05:15:05;14.77;;;13.30;;
2724;SDS011;1370;52.596;13.112;2023-06-26T05:17:30;15.37;;;12.30;;
2724;SDS011;1370;52.596;13.112;2023-06-26T05:19:55;17.20;;;15.60;;
2724;SDS011;1370;52.596;13.112;2023-06-26T05:22:21;16.70;;;15.00;;
2724;SDS011;1370;52.596;13.112;2023-06-26T05:24:46;17.23;;;15.70;;
2724;SDS011;1370;52.596;13.112;2023-06-26T05:27:12;18.73;;;14.97;;
2724;SDS011;1370;52.596;13.112;2023-06-26T05:29:45;15.83;;;14.43;;
2724;SDS011;1370;52.596;13.112;2023-06-26T05:32:11;16.83;;;15.40;;
2724;SDS011;1370;52.596;13.112;2023-06-26T05:34:37;17.33;;;15.37;;
2724;SDS011;1370;52.596;13.112;2023-06-26T05:37:03;17.30;;;14.73;;
2724;SDS011;1370;52.596;13.112;2023-06-26T05:39:29;15.47;;;14.13;;
2724;SDS011;1370;52.596;13.112;2023-06-26T05:41:55;14.27;;;12.83;;
2724;SDS011;1370;52.596;13.112;2023-06-26T05:44:21;14.30;;;13.10;;
2724;SDS011;1370;52.596;13.112;2023-06-26T05:46:46;13.30;;;12.20;;
2724;SDS011;1370;52.596;13.112;2023-06-26T05:49:11;14.40;;;12.90;;
2724;SDS011;1370;52.596;13.112;2023-06-26T05:51:37;13.90;;;12.60;;
2724;SDS011;1370;52.596;13.112;2023-06-26T05:54:02;15.57;;;13.17;;
2724;SDS011;1370;52.596;13.112;2023-06-26T05:56:28;13.40;;;12.03;;
2724;SDS011;1370;52.596;13.112;2023-06-26T05:58:53;12.73;;;11.63;;
2724;SDS011;1370;52.596;13.112;2023-06-26T06:01:19;13.10;;;11.77;;
2724;SDS011;1370;52.596;13.112;2023-06-26T06:03:44;12.83;;;11.53;;
2724;SDS011;1370;52.596;13.112;2023-06-26T06:06:10;12.00;;;10.83;;
2724;SDS011;1370;52.596;13.112;2023-06-26T06:08:35;12.80;;;11.60;;
2724;SDS011;1370;52.596;13.112;2023-06-26T06:11:01;11.20;;;9.93;;
2724;SDS011;1370;52.596;13.112;2023-06-26T06:13:26;12.77;;;11.60;;
2724;SDS011;1370;52.596;13.112;2023-06-26T06:15:52;15.53;;;10.90;;
2724;SDS011;1370;52.596;13.112;2023-06-26T06:18:17;12.50;;;10.57;;
2724;SDS011;1370;52.596;13.112;2023-06-26T06:20:42;14.53;;;12.43;;
2724;SDS011;1370;52.596;13.112;2023-06-26T06:23:08;10.70;;;9.90;;
2724;SDS011;1370;52.596;13.112;2023-06-26T06:25:33;11.47;;;9.70;;
2724;SDS011;1370;52.596;13.112;2023-06-26T06:27:58;12.07;;;9.10;;
2724;SDS011;1370;52.596;13.112;2023-06-26T06:30:23;11.30;;;10.40;;
2724;SDS011;1370;52.596;13.112;2023-06-26T06:32:49;12.53;;;9.70;;
2724;SDS011;1370;52.596;13.112;2023-06-26T06:35:17;10.43;;;9.63;;
2724;SDS011;1370;52.596;13.112;2023-06-26T06:37:43;12.93;;;10.67;;
2724;SDS011;1370;52.596;13.112;2023-06-26T06:40:09;10.87;;;9.83;;
2724;SDS011;1370;52.596;13.112;2023-06-26T06:42:35;10.97;;;10.10;;
2724;SDS011;1370;52.596;13.112;2023-06-26T06:45:04;12.00;;;11.00;;
2724;SDS011;1370;52.596;13.112;2023-06-26T06:47:31;11.10;;;9.93;;
2724;SDS011;1370;52.596;13.112;2023-06-26T06:49:56;9.93;;;9.13;;
2724;SDS011;1370;52.596;13.112;2023-06-26T06:52:22;10.83;;;9.77;;
2724;SDS011;1370;52.596;13.112;2023-06-26T06:54:50;13.10;;;9.40;;
2724;SDS011;1370;52.596;13.112;2023-06-26T06:57:16;9.67;;;8.70;;
2724;SDS011;1370;52.596;13.112;2023-06-26T06:59:42;10.77;;;9.67;;
2724;SDS011;1370;52.596;13.112;2023-06-26T07:02:07;8.67;;;7.87;;
2724;SDS011;1370;52.596;13.112;2023-06-26T07:04:32;9.93;;;8.83;;
2724;SDS011;1370;52.596;13.112;2023-06-26T07:06:57;10.07;;;9.17;;
2724;SDS011;1370;52.596;13.112;2023-06-26T07:09:23;9.87;;;8.87;;
2724;SDS011;1370;52.596;13.112;2023-06-26T07:11:48;8.90;;;8.17;;
2724;SDS011;1370;52.596;13.112;2023-06-26T07:14:13;9.23;;;8.50;;
2724;SDS011;1370;52.596;13.112;2023-06-26T07:16:38;10.00;;;9.10;;
2724;SDS011;1370;52.596;13.112;2023-06-26T07:19:04;9.37;;;8.47;;
2724;SDS011;1370;52.596;13.112;2023-06-26T07:21:29;8.53;;;7.83;;
2724;SDS011;1370;52.596;13.112;2023-06-26T07:23:54;8.93;;;8.33;;
2724;SDS011;1370;52.596;13.112;2023-06-26T07:26:20;9.23;;;8.50;;
2724;SDS011;1370;52.596;13.112;2023-06-26T07:28:47;9.73;;;8.03;;
2724;SDS011;1370;52.596;13.112;2023-06-26T07:31:13;9.23;;;8.23;;
2724;SDS011;1370;52.596;13.112;2023-06-26T07:33:39;10.40;;;9.10;;
2724;SDS011;1370;52.596;13.112;2023-06-26T07:36:05;8.80;;;8.07;;
2724;SDS011;1370;52.596;13.112;2023-06-26T07:38:30;9.07;;;8.37;;
2724;SDS011;1370;52.596;13.112;2023-06-26T07:40:56;8.97;;;8.17;;
2724;SDS011;1370;52.596;13.112;2023-06-26T07:43:21;8.17;;;7.40;;
2724;SDS011;1370;52.596;13.112;2023-06-26T07:45:48;8.50;;;7.87;;
2724;SDS011;1370;52.596;13.112;2023-06-26T07:48:13;9.27;;;7.73;;
2724;SDS011;1370;52.596;13.112;2023-06-26T07:50:38;7.90;;;7.10;;
2724;SDS011;1370;52.596;13.112;2023-06-26T07:53:04;8.77;;;8.03;;
2724;SDS011;1370;52.596;13.112;2023-06-26T07:55:30;9.20;;;8.30;;
2724;SDS011;1370;52.596;13.112;2023-06-26T07:57:56;8.47;;;7.80;;
2724;SDS011;1370;52.596;13.112;2023-06-26T08:00:21;7.63;;;6.90;;
2724;SDS011;1370;52.596;13.112;2023-06-26T08:02:46;10.43;;;9.43;;
2724;SDS011;1370;52.596;13.112;2023-06-26T08:05:12;8.50;;;7.67;;
2724;SDS011;1370;52.596;13.112;2023-06-26T08:07:38;7.13;;;6.53;;
2724;SDS011;1370;52.596;13.112;2023-06-26T08:10:03;7.73;;;7.03;;
2724;SDS011;1370;52.596;13.112;2023-06-26T08:12:29;6.80;;;6.30;;
2724;SDS011;1370;52.596;13.112;2023-06-26T08:14:54;7.03;;;6.53;;
2724;SDS011;1370;52.596;13.112;2023-06-26T08:17:20;6.93;;;6.47;;
2724;SDS011;1370;52.596;13.112;2023-06-26T08:19:45;7.23;;;5.97;;
2724;SDS011;1370;52.596;13.112;2023-06-26T08:22:10;7.90;;;6.17;;
2724;SDS011;1370;52.596;13.112;2023-06-26T08:24:35;6.53;;;5.90;;
2724;SDS011;1370;52.596;13.112;2023-06-26T08:27:01;6.77;;;6.07;;
2724;SDS011;1370;52.596;13.112;2023-06-26T08:29:28;6.97;;;6.47;;
2724;SDS011;1370;52.596;13.112;2023-06-26T08:31:53;6.70;;;6.20;;
2724;SDS011;1370;52.596;13.112;2023-06-26T08:34:19;7.70;;;6.93;;
2724;SDS011;1370;52.596;13.112;2023-06-26T08:36:44;6.90;;;6.40;;
2724;SDS011;1370;52.596;13.112;2023-06-26T08:39:09;6.53;;;5.93;;
2724;SDS011;1370;52.596;13.112;2023-06-26T08:41:35;6.97;;;6.47;;
2724;SDS011;1370;52.596;13.112;2023-06-26T08:44:01;6.30;;;5.70;;
2724;SDS011;1370;52.596;13.112;2023-06-26T08:46:27;5.80;;;5.30;;
2724;SDS011;1370;52.596;13.112;2023-06-26T08:48:59;7.77;;;7.03;;
2724;SDS011;1370;52.596;13.112;2023-06-26T08:51:26;6.53;;;6.03;;
2724;SDS011;1370;52.596;13.112;2023-06-26T08:53:56;6.67;;;6.17;;
2724;SDS011;1370;52.596;13.112;2023-06-26T08:56:22;6.27;;;5.87;;
2724;SDS011;1370;52.596;13.112;2023-06-26T08:58:49;6.87;;;6.40;;
2724;SDS011;1370;52.596;13.112;2023-06-26T09:01:14;9.60;;;6.30;;
2724;SDS011;1370;52.596;13.112;2023-06-26T09:03:40;5.83;;;5.40;;
2724;SDS011;1370;52.596;13.112;2023-06-26T09:06:06;8.23;;;5.67;;
2724;SDS011;1370;52.596;13.112;2023-06-26T09:08:32;6.97;;;6.20;;
2724;SDS011;1370;52.596;13.112;2023-06-26T09:10:57;6.93;;;6.10;;
2724;SDS011;1370;52.596;13.112;2023-06-26T09:13:22;7.10;;;6.50;;
2724;SDS011;1370;52.596;13.112;2023-06-26T09:15:48;7.63;;;6.53;;
2724;SDS011;1370;52.596;13.112;2023-06-26T09:18:13;6.70;;;6.07;;
2724;SDS011;1370;52.596;13.112;2023-06-26T09:20:42;5.70;;;5.20;;
2724;SDS011;1370;52.596;13.112;2023-06-26T09:23:07;6.57;;;5.80;;
2724;SDS011;1370;52.596;13.112;2023-06-26T09:25:33;5.07;;;4.70;;
2724;SDS011;1370;52.596;13.112;2023-06-26T09:27:59;6.30;;;5.87;;
2724;SDS011;1370;52.596;13.112;2023-06-26T09:30:24;8.73;;;6.00;;
2724;SDS011;1370;52.596;13.112;2023-06-26T09:32:50;6.50;;;5.80;;
2724;SDS011;1370;52.596;13.112;2023-06-26T09:35:15;9.67;;;6.07;;
2724;SDS011;1370;52.596;13.112;2023-06-26T09:37:41;6.47;;;5.87;;
2724;SDS011;1370;52.596;13.112;2023-06-26T09:40:06;9.10;;;5.00;;
2724;SDS011;1370;52.596;13.112;2023-06-26T09:42:33;5.77;;;5.20;;
2724;SDS011;1370;52.596;13.112;2023-06-26T09:44:58;7.27;;;4.50;;
2724;SDS011;1370;52.596;13.112;2023-06-26T09:47:24;5.93;;;5.53;;
2724;SDS011;1370;52.596;13.112;2023-06-26T09:49:49;6.53;;;5.37;;
2724;SDS011;1370;52.596;13.112;2023-06-26T09:52:16;6.10;;;5.60;;
2724;SDS011;1370;52.596;13.112;2023-06-26T09:54:42;5.10;;;4.53;;
2724;SDS011;1370;52.596;13.112;2023-06-26T09:57:12;5.33;;;4.87;;
2724;SDS011;1370;52.596;13.112;2023-06-26T09:59:38;7.13;;;5.43;;
2724;SDS011;1370;52.596;13.112;2023-06-26T10:02:04;6.07;;;5.30;;
2724;SDS011;1370;52.596;13.112;2023-06-26T10:04:30;5.73;;;5.33;;
2724;SDS011;1370;52.596;13.112;2023-06-26T10:06:56;6.20;;;5.60;;
2724;SDS011;1370;52.596;13.112;2023-06-26T10:09:22;5.63;;;5.20;;
2724;SDS011;1370;52.596;13.112;2023-06-26T10:11:52;5.70;;;5.20;;
2724;SDS011;1370;52.596;13.112;2023-06-26T10:14:20;10.33;;;5.40;;
2724;SDS011;1370;52.596;13.112;2023-06-26T10:16:47;7.03;;;5.57;;
2724;SDS011;1370;52.596;13.112;2023-06-26T10:19:14;5.10;;;4.70;;
2724;SDS011;1370;52.596;13.112;2023-06-26T10:21:43;10.50;;;5.63;;
2724;SDS011;1370;52.596;13.112;2023-06-26T10:24:09;8.23;;;6.17;;
2724;SDS011;1370;52.596;13.112;2023-06-26T10:26:36;6.80;;;6.10;;
2724;SDS011;1370;52.596;13.112;2023-06-26T10:29:03;6.60;;;5.50;;
2724;SDS011;1370;52.596;13.112;2023-06-26T10:31:30;5.87;;;5.37;;
2724;SDS011;1370;52.596;13.112;2023-06-26T10:33:56;5.53;;;4.93;;
2724;SDS011;1370;52.596;13.112;2023-06-26T10:36:27;6.10;;;5.50;;
2724;SDS011;1370;52.596;13.112;2023-06-26T10:38:55;6.13;;;5.63;;
2724;SDS011;1370;52.596;13.112;2023-06-26T10:41:22;6.67;;;5.93;;
2724;SDS011;1370;52.596;13.112;2023-06-26T10:43:51;5.47;;;5.00;;
2724;SDS011;1370;52.596;13.112;2023-06-26T10:49:17;5.77;;;5.27;;
2724;SDS011;1370;52.596;13.112;2023-06-26T10:51:46;6.00;;;5.50;;
2724;SDS011;1370;52.596;13.112;2023-06-26T10:54:14;6.20;;;5.60;;
2724;SDS011;1370;52.596;13.112;2023-06-26T10:56:41;5.30;;;4.90;;
2724;SDS011;1370;52.596;13.112;2023-06-26T10:59:11;6.63;;;6.03;;
2724;SDS011;1370;52.596;13.112;2023-06-26T11:01:42;5.43;;;5.03;;
2724;SDS011;1370;52.596;13.112;2023-06-26T11:04:08;6.40;;;5.43;;
2724;SDS011;1370;52.596;13.112;2023-06-26T11:06:35;6.63;;;5.83;;
2724;SDS011;1370;52.596;13.112;2023-06-26T11:14:16;6.60;;;6.00;;
2724;SDS011;1370;52.596;13.112;2023-06-26T11:16:42;6.97;;;6.27;;
2724;SDS011;1370;52.596;13.112;2023-06-26T11:19:07;5.33;;;4.83;;
2724;SDS011;1370;52.596;13.112;2023-06-26T11:21:33;6.70;;;6.20;;
2724;SDS011;1370;52.596;13.112;2023-06-26T11:23:59;6.10;;;5.50;;
2724;SDS011;1370;52.596;13.112;2023-06-26T11:26:27;7.00;;;6.30;;
2724;SDS011;1370;52.596;13.112;2023-06-26T11:28:54;8.93;;;5.80;;
2724;SDS011;1370;52.596;13.112;2023-06-26T11:31:26;6.87;;;6.23;;
2724;SDS011;1370;52.596;13.112;2023-06-26T11:33:53;8.73;;;6.07;;
2724;SDS011;1370;52.596;13.112;2023-06-26T11:36:19;8.17;;;6.70;;
2724;SDS011;1370;52.596;13.112;2023-06-26T11:38:45;6.37;;;5.80;;
2724;SDS011;1370;52.596;13.112;2023-06-26T11:41:10;7.23;;;5.27;;
2724;SDS011;1370;52.596;13.112;2023-06-26T11:43:35;6.50;;;6.00;;
2724;SDS011;1370;52.596;13.112;2023-06-26T11:46:01;6.60;;;6.00;;
2724;SDS011;1370;52.596;13.112;2023-06-26T11:48:26;6.33;;;5.73;;
2724;SDS011;1370;52.596;13.112;2023-06-26T11:50:51;6.40;;;5.90;;
2724;SDS011;1370;52.596;13.112;2023-06-26T11:53:16;6.23;;;5.83;;
2724;SDS011;1370;52.596;13.112;2023-06-26T11:55:42;8.60;;;5.40;;
2724;SDS011;1370;52.596;13.112;2023-06-26T11:58:08;6.00;;;5.50;;
2724;SDS011;1370;52.596;13.112;2023-06-26T12:00:33;6.67;;;6.07;;
2724;SDS011;1370;52.596;13.112;2023-06-26T12:02:58;7.20;;;6.50;;
2724;SDS011;1370;52.596;13.112;2023-06-26T12:05:24;6.80;;;6.20;;
2724;SDS011;1370;52.596;13.112;2023-06-26T12:07:49;6.97;;;6.37;;
2724;SDS011;1370;52.596;13.112;2023-06-26T12:10:15;6.80;;;6.20;;
2724;SDS011;1370;52.596;13.112;2023-06-26T12:12:41;6.97;;;6.27;;
2724;SDS011;1370;52.596;13.112;2023-06-26T12:15:07;8.20;;;7.37;;
2724;SDS011;1370;52.596;13.112;2023-06-26T12:17:33;7.57;;;6.70;;
2724;SDS011;1370;52.596;13.112;2023-06-26T12:19:58;9.73;;;6.50;;
2724;SDS011;1370;52.596;13.112;2023-06-26T12:22:23;6.43;;;5.83;;
2724;SDS011;1370;52.596;13.112;2023-06-26T12:24:49;6.40;;;5.83;;
2724;SDS011;1370;52.596;13.112;2023-06-26T12:27:15;7.50;;;6.60;;
2724;SDS011;1370;52.596;13.112;2023-06-26T12:30:02;14.20;;;5.97;;
2724;SDS011;1370;52.596;13.112;2023-06-26T12:32:29;6.97;;;5.87;;
2724;SDS011;1370;52.596;13.112;2023-06-26T12:34:54;7.20;;;6.60;;
2724;SDS011;1370;52.596;13.112;2023-06-26T12:37:21;8.07;;;7.27;;
2724;SDS011;1370;52.596;13.112;2023-06-26T12:39:53;9.27;;;7.93;;
2724;SDS011;1370;52.596;13.112;2023-06-26T12:42:20;8.33;;;7.53;;
2724;SDS011;1370;52.596;13.112;2023-06-26T12:44:49;8.13;;;7.37;;
2724;SDS011;1370;52.596;13.112;2023-06-26T12:47:15;8.57;;;7.77;;
2724;SDS011;1370;52.596;13.112;2023-06-26T12:49:42;8.67;;;7.87;;
2724;SDS011;1370;52.596;13.112;2023-06-26T12:52:09;6.90;;;6.30;;
2724;SDS011;1370;52.596;13.112;2023-06-26T12:54:36;8.93;;;8.00;;
2724;SDS011;1370;52.596;13.112;2023-06-26T12:57:02;7.23;;;6.53;;
2724;SDS011;1370;52.596;13.112;2023-06-26T12:59:31;8.90;;;8.10;;
2724;SDS011;1370;52.596;13.112;2023-06-26T13:01:57;10.47;;;9.37;;
2724;SDS011;1370;52.596;13.112;2023-06-26T13:04:23;10.87;;;7.40;;
2724;SDS011;1370;52.596;13.112;2023-06-26T13:06:48;11.27;;;7.60;;
2724;SDS011;1370;52.596;13.112;2023-06-26T13:09:14;8.97;;;8.27;;
2724;SDS011;1370;52.596;13.112;2023-06-26T13:11:39;9.37;;;8.57;;
2724;SDS011;1370;52.596;13.112;2023-06-26T13:14:05;8.27;;;7.43;;
2724;SDS011;1370;52.596;13.112;2023-06-26T13:16:30;10.87;;;7.97;;
2724;SDS011;1370;52.596;13.112;2023-06-26T13:18:57;9.10;;;7.73;;
2724;SDS011;1370;52.596;13.112;2023-06-26T13:21:23;11.40;;;8.13;;
2724;SDS011;1370;52.596;13.112;2023-06-26T13:23:48;7.00;;;6.43;;
2724;SDS011;1370;52.596;13.112;2023-06-26T13:26:13;9.20;;;8.30;;
2724;SDS011;1370;52.596;13.112;2023-06-26T13:28:39;7.90;;;7.20;;
2724;SDS011;1370;52.596;13.112;2023-06-26T13:31:04;8.83;;;8.03;;
2724;SDS011;1370;52.596;13.112;2023-06-26T13:33:30;8.30;;;7.57;;
2724;SDS011;1370;52.596;13.112;2023-06-26T13:35:55;9.63;;;8.50;;
2724;SDS011;1370;52.596;13.112;2023-06-26T13:38:21;9.50;;;8.47;;
2724;SDS011;1370;52.596;13.112;2023-06-26T13:40:50;8.57;;;7.77;;
2724;SDS011;1370;52.596;13.112;2023-06-26T13:43:20;7.97;;;7.27;;
2724;SDS011;1370;52.596;13.112;2023-06-26T13:45:46;8.60;;;7.70;;
2724;SDS011;1370;52.596;13.112;2023-06-26T13:48:11;9.27;;;8.30;;
2724;SDS011;1370;52.596;13.112;2023-06-26T13:50:36;9.43;;;8.50;;
2724;SDS011;1370;52.596;13.112;2023-06-26T13:53:01;9.10;;;8.03;;
2724;SDS011;1370;52.596;13.112;2023-06-26T13:55:27;16.20;;;8.43;;
2724;SDS011;1370;52.596;13.112;2023-06-26T13:57:52;14.70;;;8.20;;
2724;SDS011;1370;52.596;13.112;2023-06-26T14:00:17;15.63;;;8.27;;
2724;SDS011;1370;52.596;13.112;2023-06-26T14:02:45;18.60;;;9.90;;
2724;SDS011;1370;52.596;13.112;2023-06-26T14:05:10;13.63;;;9.30;;
2724;SDS011;1370;52.596;13.112;2023-06-26T14:07:36;9.73;;;8.10;;
2724;SDS011;1370;52.596;13.112;2023-06-26T14:10:02;11.73;;;8.87;;
2724;SDS011;1370;52.596;13.112;2023-06-26T14:12:28;8.07;;;7.37;;
2724;SDS011;1370;52.596;13.112;2023-06-26T14:14:53;12.20;;;7.00;;
2724;SDS011;1370;52.596;13.112;2023-06-26T14:17:19;14.23;;;7.70;;
2724;SDS011;1370;52.596;13.112;2023-06-26T14:19:44;17.70;;;7.50;;
2724;SDS011;1370;52.596;13.112;2023-06-26T14:22:10;11.93;;;7.47;;
2724;SDS011;1370;52.596;13.112;2023-06-26T14:24:36;15.30;;;8.90;;
2724;SDS011;1370;52.596;13.112;2023-06-26T14:27:01;9.20;;;8.10;;
2724;SDS011;1370;52.596;13.112;2023-06-26T14:29:26;10.43;;;9.43;;
2724;SDS011;1370;52.596;13.112;2023-06-26T14:31:51;19.20;;;10.07;;
2724;SDS011;1370;52.596;13.112;2023-06-26T14:34:17;11.03;;;9.63;;
2724;SDS011;1370;52.596;13.112;2023-06-26T14:36:42;10.57;;;9.60;;
2724;SDS011;1370;52.596;13.112;2023-06-26T14:39:08;11.67;;;10.50;;
2724;SDS011;1370;52.596;13.112;2023-06-26T14:41:33;11.20;;;9.20;;
2724;SDS011;1370;52.596;13.112;2023-06-26T14:43:58;11.53;;;9.30;;
2724;SDS011;1370;52.596;13.112;2023-06-26T14:46:23;16.40;;;11.30;;
2724;SDS011;1370;52.596;13.112;2023-06-26T14:48:49;10.50;;;9.50;;
2724;SDS011;1370;52.596;13.112;2023-06-26T14:51:16;28.57;;;13.30;;
2724;SDS011;1370;52.596;13.112;2023-06-26T14:53:41;11.80;;;9.57;;